sensor_id;sensor_type;location;lat;lon;timestamp;P1;durP1;ratioP1;P2;durP2;ratioP2
8419;SDS011;4247;48.550;8.822;2023-04-06T00:00:00;7.43;;;4.67;;
8419;SDS011;4247;48.550;8.822;2023-04-06T00:02:26;5.93;;;4.27;;
8419;SDS011;4247;48.550;8.822;2023-04-06T00:04:53;10.17;;;5.07;;
8419;SDS011;4247;48.550;8.822;2023-04-06T00:07:20;9.67;;;6.20;;
8419;SDS011;4247;48.550;8.822;2023-04-06T00:09:47;5.07;;;4.33;;
8419;SDS011;4247;48.550;8.822;2023-04-06T00:12:13;5.27;;;3.83;;
8419;SDS011;4247;48.550;8.822;2023-04-06T00:14:40;5.63;;;4.50;;
8419;SDS011;4247;48.550;8.822;2023-04-06T00:17:08;6.90;;;4.43;;
8419;SDS011;4247;48.550;8.822;2023-04-06T00:19:35;7.73;;;5.27;;
8419;SDS011;4247;48.550;8.822;2023-04-06T00:22:02;7.77;;;5.13;;
8419;SDS011;4247;48.550;8.822;2023-04-06T00:24:28;6.00;;;5.10;;
8419;SDS011;4247;48.550;8.822;2023-04-06T00:26:55;5.77;;;4.33;;
8419;SDS011;4247;48.550;8.822;2023-04-06T00:29:22;6.77;;;4.20;;
8419;SDS011;4247;48.550;8.822;2023-04-06T00:31:48;9.40;;;5.53;;
8419;SDS011;4247;48.550;8.822;2023-04-06T00:34:17;8.30;;;6.23;;
8419;SDS011;4247;48.550;8.822;2023-04-06T00:36:43;8.17;;;5.37;;
8419;SDS011;4247;48.550;8.822;2023-04-06T00:39:10;8.70;;;5.20;;
8419;SDS011;4247;48.550;8.822;2023-04-06T00:41:37;10.23;;;5.97;;
8419;SDS011;4247;48.550;8.822;2023-04-06T00:44:06;10.80;;;5.23;;
8419;SDS011;4247;48.550;8.822;2023-04-06T00:46:33;5.80;;;4.90;;
8419;SDS011;4247;48.550;8.822;2023-04-06T00:49:01;8.57;;;5.13;;
8419;SDS011;4247;48.550;8.822;2023-04-06T00:51:29;8.03;;;5.40;;
8419;SDS011;4247;48.550;8.822;2023-04-06T00:53:56;5.67;;;4.87;;
8419;SDS011;4247;48.550;8.822;2023-04-06T00:56:23;7.60;;;5.10;;
8419;SDS011;4247;48.550;8.822;2023-04-06T00:58:51;5.27;;;4.57;;
8419;SDS011;4247;48.550;8.822;2023-04-06T01:01:18;4.77;;;4.17;;
8419;SDS011;4247;48.550;8.822;2023-04-06T01:03:45;5.97;;;4.27;;
8419;SDS011;4247;48.550;8.822;2023-04-06T01:06:13;5.97;;;4.07;;
8419;SDS011;4247;48.550;8.822;2023-04-06T01:08:42;4.37;;;3.80;;
8419;SDS011;4247;48.550;8.822;2023-04-06T01:11:09;4.80;;;3.57;;
8419;SDS011;4247;48.550;8.822;2023-04-06T01:13:36;5.50;;;3.90;;
8419;SDS011;4247;48.550;8.822;2023-04-06T01:16:03;4.77;;;4.27;;
8419;SDS011;4247;48.550;8.822;2023-04-06T01:18:31;6.63;;;5.13;;
8419;SDS011;4247;48.550;8.822;2023-04-06T01:20:58;4.63;;;3.47;;
8419;SDS011;4247;48.550;8.822;2023-04-06T01:23:26;4.70;;;4.07;;
8419;SDS011;4247;48.550;8.822;2023-04-06T01:25:52;16.27;;;4.07;;
8419;SDS011;4247;48.550;8.822;2023-04-06T01:28:19;3.63;;;3.33;;
8419;SDS011;4247;48.550;8.822;2023-04-06T01:30:46;9.73;;;4.57;;
8419;SDS011;4247;48.550;8.822;2023-04-06T01:33:13;4.93;;;3.47;;
8419;SDS011;4247;48.550;8.822;2023-04-06T01:35:40;4.37;;;3.57;;
8419;SDS011;4247;48.550;8.822;2023-04-06T01:38:07;4.30;;;3.90;;
8419;SDS011;4247;48.550;8.822;2023-04-06T01:40:35;4.17;;;3.47;;
8419;SDS011;4247;48.550;8.822;2023-04-06T01:43:01;4.07;;;3.40;;
8419;SDS011;4247;48.550;8.822;2023-04-06T01:45:28;3.67;;;3.37;;
8419;SDS011;4247;48.550;8.822;2023-04-06T01:47:55;6.30;;;3.73;;
8419;SDS011;4247;48.550;8.822;2023-04-06T01:50:21;7.00;;;3.90;;
8419;SDS011;4247;48.550;8.822;2023-04-06T01:52:48;12.43;;;5.63;;
8419;SDS011;4247;48.550;8.822;2023-04-06T01:55:15;25.37;;;10.13;;
8419;SDS011;4247;48.550;8.822;2023-04-06T01:57:43;30.07;;;12.53;;
8419;SDS011;4247;48.550;8.822;2023-04-06T02:00:11;31.43;;;13.53;;
8419;SDS011;4247;48.550;8.822;2023-04-06T02:02:38;62.73;;;24.33;;
8419;SDS011;4247;48.550;8.822;2023-04-06T02:05:05;18.03;;;8.80;;
8419;SDS011;4247;48.550;8.822;2023-04-06T02:07:33;8.53;;;5.43;;
8419;SDS011;4247;48.550;8.822;2023-04-06T02:10:00;6.47;;;4.03;;
8419;SDS011;4247;48.550;8.822;2023-04-06T02:12:27;5.43;;;3.30;;
8419;SDS011;4247;48.550;8.822;2023-04-06T02:14:55;4.17;;;3.47;;
8419;SDS011;4247;48.550;8.822;2023-04-06T02:17:21;6.93;;;4.00;;
8419;SDS011;4247;48.550;8.822;2023-04-06T02:19:48;5.60;;;4.30;;
8419;SDS011;4247;48.550;8.822;2023-04-06T02:22:15;4.63;;;3.90;;
8419;SDS011;4247;48.550;8.822;2023-04-06T02:24:42;7.13;;;4.73;;
8419;SDS011;4247;48.550;8.822;2023-04-06T02:27:08;5.27;;;4.20;;
8419;SDS011;4247;48.550;8.822;2023-04-06T02:29:35;8.30;;;4.57;;
8419;SDS011;4247;48.550;8.822;2023-04-06T02:32:03;5.40;;;4.50;;
8419;SDS011;4247;48.550;8.822;2023-04-06T02:34:30;5.63;;;4.27;;
8419;SDS011;4247;48.550;8.822;2023-04-06T02:36:57;3.47;;;3.20;;
8419;SDS011;4247;48.550;8.822;2023-04-06T02:39:24;3.37;;;3.10;;
8419;SDS011;4247;48.550;8.822;2023-04-06T02:41:50;6.40;;;2.93;;
8419;SDS011;4247;48.550;8.822;2023-04-06T02:44:17;7.70;;;4.37;;
8419;SDS011;4247;48.550;8.822;2023-04-06T02:46:44;4.13;;;3.73;;
8419;SDS011;4247;48.550;8.822;2023-04-06T02:49:12;4.90;;;3.67;;
8419;SDS011;4247;48.550;8.822;2023-04-06T02:51:39;3.67;;;3.37;;
8419;SDS011;4247;48.550;8.822;2023-04-06T02:54:06;8.53;;;4.17;;
8419;SDS011;4247;48.550;8.822;2023-04-06T02:56:33;5.43;;;4.17;;
8419;SDS011;4247;48.550;8.822;2023-04-06T02:59:00;5.87;;;4.67;;
8419;SDS011;4247;48.550;8.822;2023-04-06T03:01:26;8.90;;;4.00;;
8419;SDS011;4247;48.550;8.822;2023-04-06T03:03:53;6.33;;;4.00;;
8419;SDS011;4247;48.550;8.822;2023-04-06T03:06:21;8.67;;;4.63;;
8419;SDS011;4247;48.550;8.822;2023-04-06T03:08:48;5.37;;;3.90;;
8419;SDS011;4247;48.550;8.822;2023-04-06T03:11:15;7.37;;;4.10;;
8419;SDS011;4247;48.550;8.822;2023-04-06T03:13:42;4.40;;;4.00;;
8419;SDS011;4247;48.550;8.822;2023-04-06T03:16:09;10.60;;;4.70;;
8419;SDS011;4247;48.550;8.822;2023-04-06T03:18:35;4.40;;;3.80;;
8419;SDS011;4247;48.550;8.822;2023-04-06T03:21:02;6.10;;;4.27;;
8419;SDS011;4247;48.550;8.822;2023-04-06T03:23:30;7.37;;;4.47;;
8419;SDS011;4247;48.550;8.822;2023-04-06T03:25:57;4.23;;;3.83;;
8419;SDS011;4247;48.550;8.822;2023-04-06T03:28:24;7.07;;;4.83;;
8419;SDS011;4247;48.550;8.822;2023-04-06T03:30:51;7.13;;;4.57;;
8419;SDS011;4247;48.550;8.822;2023-04-06T03:33:18;6.57;;;4.23;;
8419;SDS011;4247;48.550;8.822;2023-04-06T03:35:44;4.53;;;3.83;;
8419;SDS011;4247;48.550;8.822;2023-04-06T03:38:11;4.33;;;3.97;;
8419;SDS011;4247;48.550;8.822;2023-04-06T03:40:39;6.07;;;4.23;;
8419;SDS011;4247;48.550;8.822;2023-04-06T03:43:07;6.03;;;3.60;;
8419;SDS011;4247;48.550;8.822;2023-04-06T03:45:34;7.83;;;4.47;;
8419;SDS011;4247;48.550;8.822;2023-04-06T03:48:01;7.87;;;4.23;;
8419;SDS011;4247;48.550;8.822;2023-04-06T03:50:27;6.17;;;3.90;;
8419;SDS011;4247;48.550;8.822;2023-04-06T03:52:54;4.80;;;3.93;;
8419;SDS011;4247;48.550;8.822;2023-04-06T03:55:21;5.63;;;3.93;;
8419;SDS011;4247;48.550;8.822;2023-04-06T03:57:49;7.17;;;4.37;;
8419;SDS011;4247;48.550;8.822;2023-04-06T04:00:16;5.07;;;4.00;;
8419;SDS011;4247;48.550;8.822;2023-04-06T04:02:43;4.70;;;4.20;;
8419;SDS011;4247;48.550;8.822;2023-04-06T04:05:10;5.03;;;4.27;;
8419;SDS011;4247;48.550;8.822;2023-04-06T04:07:37;7.60;;;4.33;;
8419;SDS011;4247;48.550;8.822;2023-04-06T04:10:04;7.53;;;5.07;;
8419;SDS011;4247;48.550;8.822;2023-04-06T04:12:31;6.53;;;5.07;;
8419;SDS011;4247;48.550;8.822;2023-04-06T04:14:59;7.27;;;4.43;;
8419;SDS011;4247;48.550;8.822;2023-04-06T04:17:26;6.03;;;4.47;;
8419;SDS011;4247;48.550;8.822;2023-04-06T04:19:53;6.57;;;4.43;;
8419;SDS011;4247;48.550;8.822;2023-04-06T04:22:20;20.17;;;4.17;;
8419;SDS011;4247;48.550;8.822;2023-04-06T04:24:46;6.90;;;4.40;;
8419;SDS011;4247;48.550;8.822;2023-04-06T04:27:13;19.50;;;4.53;;
8419;SDS011;4247;48.550;8.822;2023-04-06T04:29:40;6.83;;;4.77;;
8419;SDS011;4247;48.550;8.822;2023-04-06T04:32:10;11.00;;;4.77;;
8419;SDS011;4247;48.550;8.822;2023-04-06T04:34:36;12.90;;;4.97;;
8419;SDS011;4247;48.550;8.822;2023-04-06T04:37:05;4.53;;;3.70;;
8419;SDS011;4247;48.550;8.822;2023-04-06T04:39:31;13.13;;;4.67;;
8419;SDS011;4247;48.550;8.822;2023-04-06T04:41:58;4.37;;;3.77;;
8419;SDS011;4247;48.550;8.822;2023-04-06T04:44:25;6.60;;;4.20;;
8419;SDS011;4247;48.550;8.822;2023-04-06T04:46:52;4.93;;;3.73;;
8419;SDS011;4247;48.550;8.822;2023-04-06T04:49:20;4.80;;;4.17;;
8419;SDS011;4247;48.550;8.822;2023-04-06T04:51:47;5.97;;;4.43;;
8419;SDS011;4247;48.550;8.822;2023-04-06T04:54:16;4.80;;;4.20;;
8419;SDS011;4247;48.550;8.822;2023-04-06T04:56:43;7.67;;;5.20;;
8419;SDS011;4247;48.550;8.822;2023-04-06T04:59:11;7.67;;;5.63;;
8419;SDS011;4247;48.550;8.822;2023-04-06T05:01:38;4.77;;;4.37;;
8419;SDS011;4247;48.550;8.822;2023-04-06T05:04:05;6.70;;;5.50;;
8419;SDS011;4247;48.550;8.822;2023-04-06T05:06:33;5.60;;;5.00;;
8419;SDS011;4247;48.550;8.822;2023-04-06T05:09:00;5.97;;;4.47;;
8419;SDS011;4247;48.550;8.822;2023-04-06T05:11:26;7.33;;;5.13;;
8419;SDS011;4247;48.550;8.822;2023-04-06T05:13:53;6.00;;;5.07;;
8419;SDS011;4247;48.550;8.822;2023-04-06T05:16:20;5.27;;;3.87;;
8419;SDS011;4247;48.550;8.822;2023-04-06T05:18:47;6.27;;;4.37;;
8419;SDS011;4247;48.550;8.822;2023-04-06T05:21:14;8.10;;;3.63;;
8419;SDS011;4247;48.550;8.822;2023-04-06T05:23:43;6.77;;;4.20;;
8419;SDS011;4247;48.550;8.822;2023-04-06T05:26:10;5.37;;;4.53;;
8419;SDS011;4247;48.550;8.822;2023-04-06T05:28:37;8.13;;;4.53;;
8419;SDS011;4247;48.550;8.822;2023-04-06T05:31:04;8.20;;;5.43;;
8419;SDS011;4247;48.550;8.822;2023-04-06T05:33:31;6.70;;;4.90;;
8419;SDS011;4247;48.550;8.822;2023-04-06T05:35:58;10.70;;;5.20;;
8419;SDS011;4247;48.550;8.822;2023-04-06T05:38:25;6.27;;;5.20;;
8419;SDS011;4247;48.550;8.822;2023-04-06T05:40:54;8.10;;;3.93;;
8419;SDS011;4247;48.550;8.822;2023-04-06T05:43:20;10.30;;;5.27;;
8419;SDS011;4247;48.550;8.822;2023-04-06T05:45:47;5.67;;;4.33;;
8419;SDS011;4247;48.550;8.822;2023-04-06T05:48:14;7.10;;;4.80;;
8419;SDS011;4247;48.550;8.822;2023-04-06T05:50:40;9.47;;;4.57;;
8419;SDS011;4247;48.550;8.822;2023-04-06T05:53:07;5.67;;;3.83;;
8419;SDS011;4247;48.550;8.822;2023-04-06T05:55:34;14.60;;;5.77;;
8419;SDS011;4247;48.550;8.822;2023-04-06T05:58:02;8.43;;;5.00;;
8419;SDS011;4247;48.550;8.822;2023-04-06T06:00:28;6.57;;;4.37;;
8419;SDS011;4247;48.550;8.822;2023-04-06T06:02:55;13.07;;;7.37;;
8419;SDS011;4247;48.550;8.822;2023-04-06T06:05:22;8.87;;;5.73;;
8419;SDS011;4247;48.550;8.822;2023-04-06T06:07:49;9.97;;;5.87;;
8419;SDS011;4247;48.550;8.822;2023-04-06T06:10:16;8.90;;;5.50;;
8419;SDS011;4247;48.550;8.822;2023-04-06T06:12:42;8.97;;;5.37;;
8419;SDS011;4247;48.550;8.822;2023-04-06T06:15:11;6.80;;;4.63;;
8419;SDS011;4247;48.550;8.822;2023-04-06T06:17:38;6.33;;;4.53;;
8419;SDS011;4247;48.550;8.822;2023-04-06T06:20:05;7.60;;;4.87;;
8419;SDS011;4247;48.550;8.822;2023-04-06T06:22:33;9.57;;;4.90;;
8419;SDS011;4247;48.550;8.822;2023-04-06T06:24:59;6.70;;;4.73;;
8419;SDS011;4247;48.550;8.822;2023-04-06T06:27:26;9.40;;;3.97;;
8419;SDS011;4247;48.550;8.822;2023-04-06T06:29:53;8.57;;;4.83;;
8419;SDS011;4247;48.550;8.822;2023-04-06T06:32:21;5.53;;;4.40;;
8419;SDS011;4247;48.550;8.822;2023-04-06T06:34:48;9.80;;;4.57;;
8419;SDS011;4247;48.550;8.822;2023-04-06T06:37:14;4.83;;;3.90;;
8419;SDS011;4247;48.550;8.822;2023-04-06T06:39:41;15.77;;;4.10;;
8419;SDS011;4247;48.550;8.822;2023-04-06T06:42:08;6.03;;;4.17;;
8419;SDS011;4247;48.550;8.822;2023-04-06T06:44:34;9.47;;;4.67;;
8419;SDS011;4247;48.550;8.822;2023-04-06T06:47:01;11.77;;;5.17;;
8419;SDS011;4247;48.550;8.822;2023-04-06T06:49:29;10.30;;;4.13;;
8419;SDS011;4247;48.550;8.822;2023-04-06T06:51:56;10.33;;;4.47;;
8419;SDS011;4247;48.550;8.822;2023-04-06T06:54:23;7.03;;;4.47;;
8419;SDS011;4247;48.550;8.822;2023-04-06T06:56:49;8.70;;;4.93;;
8419;SDS011;4247;48.550;8.822;2023-04-06T06:59:16;6.70;;;4.50;;
8419;SDS011;4247;48.550;8.822;2023-04-06T07:01:43;5.63;;;4.00;;
8419;SDS011;4247;48.550;8.822;2023-04-06T07:04:09;7.23;;;4.37;;
8419;SDS011;4247;48.550;8.822;2023-04-06T07:06:37;4.43;;;3.77;;
8419;SDS011;4247;48.550;8.822;2023-04-06T07:09:04;4.80;;;3.77;;
8419;SDS011;4247;48.550;8.822;2023-04-06T07:11:31;10.00;;;4.30;;
8419;SDS011;4247;48.550;8.822;2023-04-06T07:13:57;6.03;;;4.10;;
8419;SDS011;4247;48.550;8.822;2023-04-06T07:16:24;4.63;;;4.17;;
8419;SDS011;4247;48.550;8.822;2023-04-06T07:18:51;5.90;;;3.70;;
8419;SDS011;4247;48.550;8.822;2023-04-06T07:21:17;3.90;;;3.13;;
8419;SDS011;4247;48.550;8.822;2023-04-06T07:23:46;6.63;;;3.83;;
8419;SDS011;4247;48.550;8.822;2023-04-06T07:26:13;5.07;;;3.87;;
8419;SDS011;4247;48.550;8.822;2023-04-06T07:28:40;5.10;;;3.43;;
8419;SDS011;4247;48.550;8.822;2023-04-06T07:31:07;6.47;;;4.53;;
8419;SDS011;4247;48.550;8.822;2023-04-06T07:33:33;5.30;;;3.53;;
8419;SDS011;4247;48.550;8.822;2023-04-06T07:36:00;6.13;;;4.03;;
8419;SDS011;4247;48.550;8.822;2023-04-06T07:38:27;5.37;;;4.67;;
8419;SDS011;4247;48.550;8.822;2023-04-06T07:40:55;5.60;;;4.40;;
8419;SDS011;4247;48.550;8.822;2023-04-06T07:43:21;6.10;;;3.97;;
8419;SDS011;4247;48.550;8.822;2023-04-06T07:45:48;4.17;;;3.70;;
8419;SDS011;4247;48.550;8.822;2023-04-06T07:48:15;5.77;;;4.23;;
8419;SDS011;4247;48.550;8.822;2023-04-06T07:50:41;7.27;;;4.97;;
8419;SDS011;4247;48.550;8.822;2023-04-06T07:53:08;7.30;;;4.67;;
8419;SDS011;4247;48.550;8.822;2023-04-06T07:55:35;5.67;;;4.80;;
8419;SDS011;4247;48.550;8.822;2023-04-06T07:58:03;5.43;;;4.13;;
8419;SDS011;4247;48.550;8.822;2023-04-06T08:00:30;6.13;;;4.73;;
8419;SDS011;4247;48.550;8.822;2023-04-06T08:02:57;7.50;;;5.17;;
8419;SDS011;4247;48.550;8.822;2023-04-06T08:05:24;6.23;;;4.60;;
8419;SDS011;4247;48.550;8.822;2023-04-06T08:07:50;8.30;;;5.23;;
8419;SDS011;4247;48.550;8.822;2023-04-06T08:10:17;5.73;;;5.13;;
8419;SDS011;4247;48.550;8.822;2023-04-06T08:12:44;7.00;;;4.57;;
8419;SDS011;4247;48.550;8.822;2023-04-06T08:15:12;5.70;;;4.83;;
8419;SDS011;4247;48.550;8.822;2023-04-06T08:17:39;10.57;;;4.80;;
8419;SDS011;4247;48.550;8.822;2023-04-06T08:20:06;6.10;;;5.17;;
8419;SDS011;4247;48.550;8.822;2023-04-06T08:22:33;8.27;;;5.47;;
8419;SDS011;4247;48.550;8.822;2023-04-06T08:24:59;9.13;;;4.90;;
8419;SDS011;4247;48.550;8.822;2023-04-06T08:27:26;8.77;;;5.30;;
8419;SDS011;4247;48.550;8.822;2023-04-06T08:29:53;8.23;;;5.27;;
8419;SDS011;4247;48.550;8.822;2023-04-06T08:32:21;22.50;;;6.13;;
8419;SDS011;4247;48.550;8.822;2023-04-06T08:34:47;6.20;;;5.23;;
8419;SDS011;4247;48.550;8.822;2023-04-06T08:37:14;5.27;;;4.77;;
8419;SDS011;4247;48.550;8.822;2023-04-06T08:39:41;5.40;;;4.60;;
8419;SDS011;4247;48.550;8.822;2023-04-06T08:42:10;8.80;;;5.60;;
8419;SDS011;4247;48.550;8.822;2023-04-06T08:44:42;9.43;;;5.17;;
8419;SDS011;4247;48.550;8.822;2023-04-06T08:47:10;8.93;;;5.87;;
8419;SDS011;4247;48.550;8.822;2023-04-06T08:49:39;7.93;;;6.23;;
8419;SDS011;4247;48.550;8.822;2023-04-06T08:52:08;7.10;;;5.40;;
8419;SDS011;4247;48.550;8.822;2023-04-06T08:54:36;13.07;;;5.63;;
8419;SDS011;4247;48.550;8.822;2023-04-06T08:57:04;7.77;;;5.20;;
8419;SDS011;4247;48.550;8.822;2023-04-06T08:59:31;7.07;;;5.23;;
8419;SDS011;4247;48.550;8.822;2023-04-06T09:01:58;9.73;;;5.97;;
8419;SDS011;4247;48.550;8.822;2023-04-06T09:04:29;12.33;;;5.43;;
8419;SDS011;4247;48.550;8.822;2023-04-06T09:06:58;9.77;;;7.07;;
8419;SDS011;4247;48.550;8.822;2023-04-06T09:09:24;6.17;;;5.57;;
8419;SDS011;4247;48.550;8.822;2023-04-06T09:11:51;11.30;;;5.43;;
8419;SDS011;4247;48.550;8.822;2023-04-06T09:14:32;6.43;;;5.20;;
8419;SDS011;4247;48.550;8.822;2023-04-06T09:17:00;6.60;;;4.80;;
8419;SDS011;4247;48.550;8.822;2023-04-06T09:19:27;7.43;;;5.13;;
8419;SDS011;4247;48.550;8.822;2023-04-06T09:22:02;7.23;;;5.50;;
8419;SDS011;4247;48.550;8.822;2023-04-06T09:24:38;7.33;;;5.00;;
8419;SDS011;4247;48.550;8.822;2023-04-06T09:27:06;5.50;;;4.53;;
8419;SDS011;4247;48.550;8.822;2023-04-06T09:29:32;9.37;;;5.57;;
8419;SDS011;4247;48.550;8.822;2023-04-06T09:32:02;6.30;;;5.23;;
8419;SDS011;4247;48.550;8.822;2023-04-06T09:34:30;25.67;;;11.13;;
8419;SDS011;4247;48.550;8.822;2023-04-06T09:36:57;18.67;;;10.17;;
8419;SDS011;4247;48.550;8.822;2023-04-06T09:39:25;10.60;;;6.23;;
8419;SDS011;4247;48.550;8.822;2023-04-06T09:41:53;10.33;;;6.57;;
8419;SDS011;4247;48.550;8.822;2023-04-06T09:44:20;6.97;;;5.20;;
8419;SDS011;4247;48.550;8.822;2023-04-06T09:46:49;8.03;;;5.20;;
8419;SDS011;4247;48.550;8.822;2023-04-06T09:49:15;6.30;;;5.33;;
8419;SDS011;4247;48.550;8.822;2023-04-06T09:51:44;7.13;;;4.57;;
8419;SDS011;4247;48.550;8.822;2023-04-06T09:54:15;4.77;;;4.27;;
8419;SDS011;4247;48.550;8.822;2023-04-06T09:56:46;13.00;;;6.90;;
8419;SDS011;4247;48.550;8.822;2023-04-06T09:59:18;6.73;;;5.00;;
8419;SDS011;4247;48.550;8.822;2023-04-06T10:01:54;8.77;;;5.53;;
8419;SDS011;4247;48.550;8.822;2023-04-06T10:04:26;8.87;;;5.33;;
8419;SDS011;4247;48.550;8.822;2023-04-06T10:06:59;5.97;;;5.20;;
8419;SDS011;4247;48.550;8.822;2023-04-06T10:09:28;8.87;;;5.30;;
8419;SDS011;4247;48.550;8.822;2023-04-06T10:12:02;9.67;;;5.50;;
8419;SDS011;4247;48.550;8.822;2023-04-06T10:14:29;6.77;;;5.13;;
8419;SDS011;4247;48.550;8.822;2023-04-06T10:16:57;6.03;;;4.60;;
8419;SDS011;4247;48.550;8.822;2023-04-06T10:19:26;7.17;;;5.10;;
8419;SDS011;4247;48.550;8.822;2023-04-06T10:21:57;8.20;;;4.77;;
8419;SDS011;4247;48.550;8.822;2023-04-06T10:24:25;5.90;;;4.03;;
8419;SDS011;4247;48.550;8.822;2023-04-06T10:26:58;8.97;;;5.13;;
8419;SDS011;4247;48.550;8.822;2023-04-06T10:29:28;4.43;;;3.43;;
8419;SDS011;4247;48.550;8.822;2023-04-06T10:32:08;4.33;;;3.63;;
8419;SDS011;4247;48.550;8.822;2023-04-06T10:34:35;7.17;;;5.17;;
8419;SDS011;4247;48.550;8.822;2023-04-06T10:37:10;4.97;;;3.57;;
8419;SDS011;4247;48.550;8.822;2023-04-06T10:39:45;4.53;;;3.33;;
8419;SDS011;4247;48.550;8.822;2023-04-06T10:42:14;5.50;;;3.53;;
8419;SDS011;4247;48.550;8.822;2023-04-06T10:44:43;6.23;;;3.80;;
8419;SDS011;4247;48.550;8.822;2023-04-06T10:47:15;5.73;;;3.40;;
8419;SDS011;4247;48.550;8.822;2023-04-06T10:49:42;5.40;;;3.63;;
8419;SDS011;4247;48.550;8.822;2023-04-06T10:52:09;12.27;;;3.90;;
8419;SDS011;4247;48.550;8.822;2023-04-06T10:54:38;4.67;;;3.57;;
8419;SDS011;4247;48.550;8.822;2023-04-06T10:57:08;5.67;;;3.50;;
8419;SDS011;4247;48.550;8.822;2023-04-06T10:59:36;4.60;;;3.50;;
8419;SDS011;4247;48.550;8.822;2023-04-06T11:02:02;4.63;;;3.00;;
8419;SDS011;4247;48.550;8.822;2023-04-06T11:04:29;6.10;;;3.87;;
8419;SDS011;4247;48.550;8.822;2023-04-06T11:06:56;5.93;;;3.43;;
8419;SDS011;4247;48.550;8.822;2023-04-06T11:09:23;6.20;;;3.70;;
8419;SDS011;4247;48.550;8.822;2023-04-06T11:11:51;4.30;;;3.37;;
8419;SDS011;4247;48.550;8.822;2023-04-06T11:14:20;6.33;;;3.90;;
8419;SDS011;4247;48.550;8.822;2023-04-06T11:16:48;5.23;;;3.77;;
8419;SDS011;4247;48.550;8.822;2023-04-06T11:19:15;6.30;;;3.60;;
8419;SDS011;4247;48.550;8.822;2023-04-06T11:21:43;4.90;;;4.23;;
8419;SDS011;4247;48.550;8.822;2023-04-06T11:24:13;3.93;;;3.53;;
8419;SDS011;4247;48.550;8.822;2023-04-06T11:26:41;6.03;;;3.20;;
8419;SDS011;4247;48.550;8.822;2023-04-06T11:29:10;4.53;;;2.93;;
8419;SDS011;4247;48.550;8.822;2023-04-06T11:31:38;4.73;;;3.47;;
8419;SDS011;4247;48.550;8.822;2023-04-06T11:34:11;6.30;;;4.07;;
8419;SDS011;4247;48.550;8.822;2023-04-06T11:36:41;5.40;;;3.30;;
8419;SDS011;4247;48.550;8.822;2023-04-06T11:39:09;4.20;;;3.70;;
8419;SDS011;4247;48.550;8.822;2023-04-06T11:41:36;4.80;;;3.20;;
8419;SDS011;4247;48.550;8.822;2023-04-06T11:44:03;3.93;;;2.83;;
8419;SDS011;4247;48.550;8.822;2023-04-06T11:46:31;7.27;;;3.13;;
8419;SDS011;4247;48.550;8.822;2023-04-06T11:48:58;4.57;;;3.37;;
8419;SDS011;4247;48.550;8.822;2023-04-06T11:51:27;5.13;;;2.70;;
8419;SDS011;4247;48.550;8.822;2023-04-06T11:53:54;3.43;;;3.13;;
8419;SDS011;4247;48.550;8.822;2023-04-06T11:56:24;2.73;;;2.37;;
8419;SDS011;4247;48.550;8.822;2023-04-06T11:58:54;2.93;;;2.63;;
8419;SDS011;4247;48.550;8.822;2023-04-06T12:01:22;2.43;;;2.23;;
8419;SDS011;4247;48.550;8.822;2023-04-06T12:03:49;3.43;;;2.53;;
8419;SDS011;4247;48.550;8.822;2023-04-06T12:06:16;6.53;;;2.87;;
8419;SDS011;4247;48.550;8.822;2023-04-06T12:08:44;7.27;;;2.97;;
8419;SDS011;4247;48.550;8.822;2023-04-06T12:11:11;4.57;;;3.70;;
8419;SDS011;4247;48.550;8.822;2023-04-06T12:13:38;5.87;;;3.10;;
8419;SDS011;4247;48.550;8.822;2023-04-06T12:16:04;4.27;;;3.23;;
8419;SDS011;4247;48.550;8.822;2023-04-06T12:18:31;5.10;;;2.63;;
8419;SDS011;4247;48.550;8.822;2023-04-06T12:20:58;4.77;;;2.77;;
8419;SDS011;4247;48.550;8.822;2023-04-06T12:23:25;5.10;;;2.63;;
8419;SDS011;4247;48.550;8.822;2023-04-06T12:25:53;3.40;;;3.10;;
8419;SDS011;4247;48.550;8.822;2023-04-06T12:28:20;4.20;;;3.20;;
8419;SDS011;4247;48.550;8.822;2023-04-06T12:30:48;4.87;;;3.13;;
8419;SDS011;4247;48.550;8.822;2023-04-06T12:33:15;5.90;;;3.53;;
8419;SDS011;4247;48.550;8.822;2023-04-06T12:35:41;3.87;;;3.30;;
8419;SDS011;4247;48.550;8.822;2023-04-06T12:38:08;3.87;;;3.13;;
8419;SDS011;4247;48.550;8.822;2023-04-06T12:40:36;3.40;;;3.10;;
8419;SDS011;4247;48.550;8.822;2023-04-06T12:43:04;5.07;;;3.27;;
8419;SDS011;4247;48.550;8.822;2023-04-06T12:45:31;3.93;;;3.13;;
8419;SDS011;4247;48.550;8.822;2023-04-06T12:47:58;4.50;;;3.47;;
8419;SDS011;4247;48.550;8.822;2023-04-06T12:50:25;3.57;;;2.87;;
8419;SDS011;4247;48.550;8.822;2023-04-06T12:52:52;5.13;;;3.33;;
8419;SDS011;4247;48.550;8.822;2023-04-06T12:55:19;7.10;;;3.40;;
8419;SDS011;4247;48.550;8.822;2023-04-06T12:57:46;5.57;;;2.87;;
8419;SDS011;4247;48.550;8.822;2023-04-06T13:00:15;5.60;;;3.63;;
8419;SDS011;4247;48.550;8.822;2023-04-06T13:02:42;4.27;;;3.27;;
8419;SDS011;4247;48.550;8.822;2023-04-06T13:05:11;6.40;;;3.93;;
8419;SDS011;4247;48.550;8.822;2023-04-06T13:07:38;5.67;;;4.00;;
8419;SDS011;4247;48.550;8.822;2023-04-06T13:10:05;5.00;;;3.20;;
8419;SDS011;4247;48.550;8.822;2023-04-06T13:12:33;5.13;;;4.20;;
8419;SDS011;4247;48.550;8.822;2023-04-06T13:15:00;3.50;;;2.90;;
8419;SDS011;4247;48.550;8.822;2023-04-06T13:17:28;5.13;;;3.23;;
8419;SDS011;4247;48.550;8.822;2023-04-06T13:19:55;4.17;;;3.00;;
8419;SDS011;4247;48.550;8.822;2023-04-06T13:22:22;5.67;;;3.00;;
8419;SDS011;4247;48.550;8.822;2023-04-06T13:24:49;4.63;;;3.60;;
8419;SDS011;4247;48.550;8.822;2023-04-06T13:27:16;5.17;;;3.30;;
8419;SDS011;4247;48.550;8.822;2023-04-06T13:29:42;4.17;;;3.43;;
8419;SDS011;4247;48.550;8.822;2023-04-06T13:32:09;5.67;;;3.10;;
8419;SDS011;4247;48.550;8.822;2023-04-06T13:34:37;3.10;;;2.80;;
8419;SDS011;4247;48.550;8.822;2023-04-06T13:37:05;5.60;;;3.40;;
8419;SDS011;4247;48.550;8.822;2023-04-06T13:39:32;5.07;;;2.83;;
8419;SDS011;4247;48.550;8.822;2023-04-06T13:41:58;2.67;;;2.43;;
8419;SDS011;4247;48.550;8.822;2023-04-06T13:44:27;5.53;;;2.80;;
8419;SDS011;4247;48.550;8.822;2023-04-06T13:46:54;2.30;;;2.10;;
8419;SDS011;4247;48.550;8.822;2023-04-06T13:49:21;5.07;;;2.50;;
8419;SDS011;4247;48.550;8.822;2023-04-06T13:51:49;3.67;;;2.70;;
8419;SDS011;4247;48.550;8.822;2023-04-06T13:54:16;5.70;;;2.87;;
8419;SDS011;4247;48.550;8.822;2023-04-06T13:56:46;3.00;;;2.13;;
8419;SDS011;4247;48.550;8.822;2023-04-06T13:59:12;2.67;;;2.00;;
8419;SDS011;4247;48.550;8.822;2023-04-06T14:01:39;3.53;;;2.83;;
8419;SDS011;4247;48.550;8.822;2023-04-06T14:04:06;3.83;;;3.43;;
8419;SDS011;4247;48.550;8.822;2023-04-06T14:06:33;2.40;;;2.20;;
8419;SDS011;4247;48.550;8.822;2023-04-06T14:09:01;1.60;;;1.50;;
8419;SDS011;4247;48.550;8.822;2023-04-06T14:11:27;2.30;;;1.73;;
8419;SDS011;4247;48.550;8.822;2023-04-06T14:13:54;4.47;;;2.37;;
8419;SDS011;4247;48.550;8.822;2023-04-06T14:16:23;2.07;;;1.97;;
8419;SDS011;4247;48.550;8.822;2023-04-06T14:18:49;5.00;;;2.07;;
8419;SDS011;4247;48.550;8.822;2023-04-06T14:21:17;2.40;;;1.80;;
8419;SDS011;4247;48.550;8.822;2023-04-06T14:23:44;2.33;;;1.80;;
8419;SDS011;4247;48.550;8.822;2023-04-06T14:26:13;2.90;;;1.40;;
8419;SDS011;4247;48.550;8.822;2023-04-06T14:28:41;8.67;;;2.37;;
8419;SDS011;4247;48.550;8.822;2023-04-06T14:31:11;4.03;;;2.10;;
8419;SDS011;4247;48.550;8.822;2023-04-06T14:33:39;3.10;;;1.77;;
8419;SDS011;4247;48.550;8.822;2023-04-06T14:36:06;2.57;;;2.10;;
8419;SDS011;4247;48.550;8.822;2023-04-06T14:38:34;3.27;;;1.80;;
8419;SDS011;4247;48.550;8.822;2023-04-06T14:41:01;4.90;;;2.13;;
8419;SDS011;4247;48.550;8.822;2023-04-06T14:43:29;5.00;;;2.43;;
8419;SDS011;4247;48.550;8.822;2023-04-06T14:45:59;2.40;;;2.00;;
8419;SDS011;4247;48.550;8.822;2023-04-06T14:48:26;3.20;;;2.27;;
8419;SDS011;4247;48.550;8.822;2023-04-06T14:50:53;4.07;;;1.90;;
8419;SDS011;4247;48.550;8.822;2023-04-06T14:53:21;3.87;;;1.87;;
8419;SDS011;4247;48.550;8.822;2023-04-06T14:55:48;2.60;;;1.30;;
8419;SDS011;4247;48.550;8.822;2023-04-06T14:58:16;3.87;;;1.73;;
8419;SDS011;4247;48.550;8.822;2023-04-06T15:00:44;2.80;;;1.80;;
8419;SDS011;4247;48.550;8.822;2023-04-06T15:03:11;2.33;;;1.70;;
8419;SDS011;4247;48.550;8.822;2023-04-06T15:05:38;2.93;;;1.63;;
8419;SDS011;4247;48.550;8.822;2023-04-06T15:08:05;1.07;;;0.97;;
8419;SDS011;4247;48.550;8.822;2023-04-06T15:10:31;1.77;;;1.40;;
8419;SDS011;4247;48.550;8.822;2023-04-06T15:12:58;1.47;;;1.30;;
8419;SDS011;4247;48.550;8.822;2023-04-06T15:15:25;2.27;;;1.60;;